Time;durP1;ratioP1;P1;durP2;ratioP2;P2;SDS_P1;SDS_P2;PMS_P1;PMS_P2;Temp;Humidity;BMP_temperature;BMP_pressure;BME280_temperature;BME280_humidity;BME280_pressure;Samples;Min_cycle;Max_cycle;Signal;HPM_P1;HPM_P2
2022/11/16 00:01:20;;;;;;;33.20;12.93;;;;;;;3.52;95.56;98689.12;1799688;78;21533;-79
2022/11/16 00:03:47;;;;;;;33.63;13.20;;;;;;;3.54;95.51;98682.66;1807740;76;20944;-77
2022/11/16 00:06:14;;;;;;;32.73;12.80;;;;;;;3.58;95.46;98681.79;1798897;78;21125;-77
2022/11/16 00:09:20;;;;;;;34.35;13.45;;;;;;;3.56;95.37;98688.66;1808452;76;20991;-78
2022/11/16 00:11:19;;;;;;;34.78;12.98;;;;;;;3.55;95.24;98683.95;1801373;78;21026;-76
2022/11/16 00:13:46;;;;;;;28.60;11.55;;;;;;;3.54;95.22;98682.66;1807287;77;21035;-79
2022/11/16 00:16:16;;;;;;;33.33;13.13;;;;;;;3.54;95.42;98675.83;1796083;77;21625;-79
2022/11/16 00:18:44;;;;;;;29.67;12.55;;;;;;;3.56;95.38;98668.97;1815296;77;21015;-77
2022/11/16 00:21:10;;;;;;;32.38;12.68;;;;;;;3.59;95.46;98668.94;1797757;77;21022;-78
2022/11/16 00:23:37;;;;;;;31.57;12.35;;;;;;;3.59;95.28;98666.37;1813279;77;20999;-79
2022/11/16 00:26:07;;;;;;;33.67;13.72;;;;;;;3.59;95.19;98671.95;1802637;77;21549;-79
2022/11/16 00:28:34;;;;;;;33.02;13.60;;;;;;;3.58;95.43;98671.51;1797012;77;21494;-77
2022/11/16 00:31:03;;;;;;;35.38;13.85;;;;;;;3.58;95.32;98665.96;1786396;79;21055;-79
2022/11/16 00:33:30;;;;;;;36.03;13.45;;;;;;;3.53;95.17;98662.98;1798722;78;20976;-79
2022/11/16 00:35:56;;;;;;;34.65;13.83;;;;;;;3.47;95.21;98658.70;1810304;78;21910;-79
2022/11/16 00:38:23;;;;;;;35.15;14.55;;;;;;;3.38;95.42;98657.44;1810658;77;21035;-79
2022/11/16 00:40:49;;;;;;;27.85;13.68;;;;;;;3.31;95.70;98660.47;1816556;77;21094;-78
2022/11/16 00:43:16;;;;;;;29.15;11.95;;;;;;;3.29;95.77;98664.77;1795903;77;21486;-79
2022/11/16 00:45:43;;;;;;;33.98;13.03;;;;;;;3.26;96.01;98659.62;1806680;77;21027;-79
2022/11/16 00:48:11;;;;;;;30.60;12.05;;;;;;;3.20;96.02;98649.36;1795819;77;20994;-76
2022/11/16 00:50:38;;;;;;;29.42;10.40;;;;;;;3.17;95.10;98655.37;1798497;77;21019;-79
2022/11/16 00:53:06;;;;;;;27.40;10.98;;;;;;;3.13;95.00;98648.53;1806422;78;21015;-79
2022/11/16 00:55:33;;;;;;;28.85;11.68;;;;;;;3.06;95.59;98639.55;1801390;78;21004;-79
2022/11/16 00:58:01;;;;;;;27.95;11.55;;;;;;;3.06;95.64;98642.13;1805797;78;21038;-78
2022/11/16 01:00:28;;;;;;;35.48;12.65;;;;;;;3.03;95.24;98626.30;1799703;77;21078;-78
2022/11/16 01:02:54;;;;;;;29.98;12.65;;;;;;;3.05;95.06;98628.87;1803206;77;21502;-79
2022/11/16 01:05:22;;;;;;;32.88;11.83;;;;;;;3.05;95.80;98632.72;1800349;77;20995;-79
2022/11/16 01:07:51;;;;;;;25.82;10.48;;;;;;;3.09;96.02;98616.01;1806605;77;21126;-77
2022/11/16 01:10:21;;;;;;;26.05;11.38;;;;;;;3.06;96.49;98604.45;1798790;77;21011;-78
2022/11/16 01:12:50;;;;;;;28.02;11.22;;;;;;;3.05;96.35;98605.76;1806579;77;21018;-79
2022/11/16 01:15:19;;;;;;;34.20;12.78;;;;;;;3.06;96.17;98608.73;1821722;77;20976;-78
2022/11/16 01:17:46;;;;;;;32.20;11.53;;;;;;;3.07;96.42;98615.59;1808289;77;21010;-79
2022/11/16 01:20:17;;;;;;;24.02;10.80;;;;;;;3.08;96.71;98614.72;1817612;78;21034;-78
2022/11/16 01:22:44;;;;;;;25.85;10.43;;;;;;;3.11;96.64;98617.30;1800753;78;21129;-79
2022/11/16 01:25:13;;;;;;;27.67;9.55;;;;;;;3.12;96.77;98617.70;1822966;77;21054;-79
2022/11/16 01:27:41;;;;;;;27.95;11.43;;;;;;;3.13;96.46;98622.00;1813115;77;20992;-77
2022/11/16 01:30:12;;;;;;;29.55;10.45;;;;;;;3.16;96.39;98621.97;1831264;77;21606;-76
2022/11/16 01:32:40;;;;;;;24.00;10.23;;;;;;;3.12;96.62;98624.13;1817961;77;20967;-77
2022/11/16 01:35:08;;;;;;;28.80;11.88;;;;;;;3.12;96.46;98620.27;1816292;77;20984;-76
2022/11/16 01:37:35;;;;;;;30.85;11.68;;;;;;;3.14;96.57;98616.86;1827609;77;21007;-76
2022/11/16 01:40:03;;;;;;;26.30;11.05;;;;;;;3.12;96.60;98614.73;1801664;78;20976;-76
2022/11/16 01:42:30;;;;;;;28.62;11.83;;;;;;;3.12;96.61;98611.28;1798667;78;21027;-77
2022/11/16 01:45:22;;;;;;;26.65;11.22;;;;;;;3.09;96.76;98607.45;1808303;78;21032;-78
2022/11/16 01:47:52;;;;;;;31.27;12.50;;;;;;;3.08;96.56;98607.86;1799810;78;22025;-77
2022/11/16 01:50:21;;;;;;;28.30;10.68;;;;;;;2.99;97.00;98599.77;1809371;77;20992;-79
2022/11/16 01:52:54;;;;;;;32.55;12.23;;;;;;;2.96;96.22;98592.49;1797098;78;21034;-79
2022/11/16 01:55:23;;;;;;;33.67;11.93;;;;;;;2.93;96.54;98594.65;1798627;77;21043;-78
2022/11/16 01:58:07;;;;;;;29.30;11.03;;;;;;;2.85;96.19;98580.98;1796588;77;21310;-76
2022/11/16 02:00:35;;;;;;;26.60;9.90;;;;;;;2.82;96.24;98573.27;1820145;77;20983;-79
2022/11/16 02:03:04;;;;;;;27.32;10.38;;;;;;;2.77;96.66;98572.01;1795032;77;22074;-79
2022/11/16 02:05:58;;;;;;;33.48;11.73;;;;;;;2.76;96.50;98565.59;1812524;78;21142;-77
2022/11/16 02:12:06;;;;;;;32.60;11.48;;;;;;;2.76;96.87;98554.88;1810673;77;21075;-77
2022/11/16 02:14:47;;;;;;;32.13;11.53;;;;;;;2.80;96.22;98557.02;1803114;78;21103;-78
2022/11/16 02:18:10;;;;;;;30.23;11.15;;;;;;;2.79;96.68;98559.17;1799331;78;21022;-76
2022/11/16 02:21:21;;;;;;;29.45;10.50;;;;;;;2.79;96.96;98556.61;1818693;76;21059;-77
2022/11/16 02:24:11;;;;;;;32.78;12.82;;;;;;;2.82;97.69;98555.30;1799696;78;21007;-77
2022/11/16 02:26:55;;;;;;;34.58;13.18;;;;;;;2.81;98.06;98559.18;1809108;78;21035;-77
2022/11/16 02:29:47;;;;;;;32.25;12.10;;;;;;;2.84;97.42;98539.46;1831292;78;21106;-77
2022/11/16 02:32:40;;;;;;;36.03;14.15;;;;;;;2.85;97.46;98548.04;1815543;78;20987;-76
2022/11/16 02:35:14;;;;;;;42.85;14.80;;;;;;;2.88;97.68;98551.42;1757446;78;21534;-77
2022/11/16 02:37:49;;;;;;;35.10;13.60;;;;;;;2.92;98.03;98549.27;1804873;78;20978;-76
2022/11/16 02:40:20;;;;;;;35.68;13.88;;;;;;;2.94;97.80;98544.14;1816301;78;21031;-76
2022/11/16 02:42:55;;;;;;;28.00;10.13;;;;;;;2.96;97.51;98556.14;1804316;78;20994;-79
2022/11/16 02:45:27;;;;;;;25.82;11.88;;;;;;;2.97;97.59;98555.26;1801560;77;20951;-78
2022/11/16 02:47:59;;;;;;;30.43;11.85;;;;;;;2.98;97.56;98553.14;1774242;80;20980;-76
2022/11/16 02:50:26;;;;;;;34.92;13.72;;;;;;;3.03;97.90;98544.55;1800459;80;21578;-78
2022/11/16 02:52:54;;;;;;;35.08;13.68;;;;;;;3.08;97.59;98545.37;1799506;80;21995;-78
2022/11/16 02:55:23;;;;;;;31.80;11.97;;;;;;;3.10;97.58;98548.80;1799945;78;21614;-78
2022/11/16 02:58:02;;;;;;;30.62;12.30;;;;;;;3.07;96.93;98538.11;1800001;80;21030;-77
2022/11/16 03:00:44;;;;;;;29.52;11.93;;;;;;;3.04;97.11;98525.70;1801112;80;20968;-77
2022/11/16 03:03:19;;;;;;;35.68;12.37;;;;;;;2.99;96.96;98515.46;1791023;79;20991;-77
2022/11/16 03:06:12;;;;;;;33.92;12.45;;;;;;;2.98;97.48;98519.75;1799143;80;21070;-77
2022/11/16 03:08:53;;;;;;;28.73;10.72;;;;;;;2.99;97.45;98508.60;1766966;80;20972;-76
2022/11/16 03:14:11;;;;;;;28.35;10.95;;;;;;;2.96;97.17;98488.09;1796210;79;21030;-76
2022/11/16 03:16:45;;;;;;;30.82;12.43;;;;;;;2.96;97.76;98474.38;1735719;80;21058;-76
2022/11/16 03:19:16;;;;;;;39.10;13.13;;;;;;;3.01;97.79;98473.94;1789443;80;21023;-77
2022/11/16 03:22:04;;;;;;;32.38;12.30;;;;;;;3.03;97.21;98491.91;1789655;78;21577;-78
2022/11/16 03:24:31;;;;;;;33.58;10.88;;;;;;;3.02;98.33;98500.46;1824619;78;21054;-77
2022/11/16 03:27:38;;;;;;;23.32;9.13;;;;;;;3.05;97.62;98485.05;1785705;79;21527;-79
2022/11/16 03:30:22;;;;;;;27.98;10.70;;;;;;;3.07;97.55;98490.59;1778419;80;21041;-76
2022/11/16 03:33:15;;;;;;;25.77;10.88;;;;;;;3.01;98.06;98480.80;1757804;80;20991;-77
2022/11/16 03:35:53;;;;;;;33.33;10.90;;;;;;;3.04;97.91;98481.61;1757816;81;21011;-75
2022/11/16 03:38:23;;;;;;;31.62;10.58;;;;;;;3.05;97.71;98485.05;1713722;80;21040;-77
2022/11/16 03:40:55;;;;;;;28.73;10.85;;;;;;;3.06;97.61;98486.30;1778475;81;21041;-77
2022/11/16 03:43:24;;;;;;;29.55;11.05;;;;;;;3.11;97.64;98485.87;1777642;81;21458;-77
2022/11/16 03:45:53;;;;;;;34.88;11.80;;;;;;;3.07;97.90;98479.48;1778637;80;21068;-79
2022/11/16 03:48:20;;;;;;;34.05;11.48;;;;;;;3.08;97.66;98479.89;1786017;80;21928;-78
2022/11/16 03:50:46;;;;;;;26.77;10.45;;;;;;;3.07;98.02;98480.77;1785277;80;21104;-79
2022/11/16 03:53:13;;;;;;;29.30;10.70;;;;;;;3.09;98.13;98474.75;1785518;80;21016;-79
2022/11/16 03:55:40;;;;;;;34.98;12.07;;;;;;;3.10;98.10;98473.02;1785098;80;21056;-79
2022/11/16 03:58:06;;;;;;;39.85;12.55;;;;;;;3.13;98.21;98476.87;1784969;80;22115;-79
2022/11/16 04:00:33;;;;;;;28.42;12.33;;;;;;;3.21;98.43;98467.85;1784944;80;21091;-78
2022/11/16 04:03:02;;;;;;;39.98;13.40;;;;;;;3.23;98.28;98464.40;1784635;80;21067;-78
2022/11/16 04:25:02;;;;;;;33.05;11.60;;;;;;;3.15;97.25;98406.65;1829765;78;21058;-77
2022/11/16 04:30:15;;;;;;;33.55;11.78;;;;;;;3.14;97.08;98411.78;1803139;78;21547;-77
2022/11/16 04:37:57;;;;;;;30.37;13.22;;;;;;;3.09;97.90;98393.84;1811367;77;20992;-76
2022/11/16 04:40:28;;;;;;;30.90;11.80;;;;;;;3.10;97.95;98375.43;1807758;77;22242;-76
2022/11/16 04:42:58;;;;;;;33.75;12.65;;;;;;;3.15;97.94;98378.39;1805822;78;21490;-77
2022/11/16 04:48:16;;;;;;;35.60;13.25;;;;;;;3.17;98.03;98408.77;1771311;79;21034;-78
2022/11/16 04:50:45;;;;;;;27.42;10.88;;;;;;;3.19;98.02;98399.78;1789200;78;21011;-79
2022/11/16 04:53:12;;;;;;;29.00;11.93;;;;;;;3.19;98.20;98393.36;1818273;77;21015;-79
2022/11/16 04:55:41;;;;;;;26.82;10.23;;;;;;;3.21;98.29;98404.91;1804595;78;21340;-78
2022/11/16 04:58:08;;;;;;;29.37;12.43;;;;;;;3.20;98.28;98418.16;1816349;77;21003;-79
2022/11/16 05:00:34;;;;;;;29.48;13.22;;;;;;;3.24;98.37;98413.87;1811956;78;20991;-79
2022/11/16 05:03:03;;;;;;;32.30;13.10;;;;;;;3.28;98.11;98407.84;1822662;77;21558;-78
2022/11/16 05:05:30;;;;;;;28.80;10.98;;;;;;;3.30;98.29;98401.86;1800812;78;21562;-76
2022/11/16 05:07:58;;;;;;;29.45;10.98;;;;;;;3.37;98.25;98394.50;1788752;78;21756;-76
2022/11/16 05:10:26;;;;;;;24.43;10.00;;;;;;;3.42;98.13;98385.47;1798725;78;21327;-79
2022/11/16 05:12:54;;;;;;;30.35;11.78;;;;;;;3.46;98.16;98387.59;1797991;78;21062;-79
2022/11/16 05:15:20;;;;;;;37.98;16.60;;;;;;;3.48;97.92;98371.72;1802851;77;21587;-80
2022/11/16 05:17:47;;;;;;;32.13;14.80;;;;;;;3.51;97.67;98381.55;1797779;78;20972;-78
2022/11/16 05:23:03;;;;;;;34.45;16.65;;;;;;;3.55;97.49;98373.39;1800057;77;21604;-77
2022/11/16 05:25:32;;;;;;;35.58;14.10;;;;;;;3.54;97.36;98348.13;1794772;77;20980;-79
2022/11/16 05:27:59;;;;;;;33.73;13.18;;;;;;;3.52;97.44;98375.97;1780885;79;21031;-79
2022/11/16 05:30:27;;;;;;;32.13;13.75;;;;;;;3.51;97.35;98383.28;1790423;79;21016;-78
2022/11/16 05:32:53;;;;;;;27.95;13.25;;;;;;;3.45;97.05;98386.74;1793462;77;21052;-78
2022/11/16 05:35:21;;;;;;;30.17;13.30;;;;;;;3.42;97.34;98382.05;1794967;78;20977;-80
2022/11/16 05:37:48;;;;;;;30.90;13.05;;;;;;;3.35;97.37;98387.23;1787284;79;21023;-76
2022/11/16 05:40:15;;;;;;;34.53;14.18;;;;;;;3.34;97.27;98382.11;1792271;79;21329;-78
2022/11/16 05:42:44;;;;;;;26.37;10.65;;;;;;;3.31;97.50;98382.98;1788966;78;21020;-78
2022/11/16 05:45:10;;;;;;;32.28;12.68;;;;;;;3.31;96.93;98377.85;1764541;79;21004;-78
2022/11/16 05:47:37;;;;;;;36.35;11.43;;;;;;;3.25;96.92;98374.05;1788071;79;21028;-79
2022/11/16 05:50:04;;;;;;;37.53;14.05;;;;;;;3.24;97.08;98373.61;1810430;79;21004;-80
2022/11/16 05:52:32;;;;;;;31.27;13.90;;;;;;;3.25;97.39;98379.19;1780521;79;21032;-77
2022/11/16 05:55:01;;;;;;;28.20;11.25;;;;;;;3.27;97.25;98389.45;1781322;79;21071;-79
2022/11/16 05:57:28;;;;;;;24.35;10.35;;;;;;;3.28;97.24;98371.88;1759847;78;21055;-78
2022/11/16 05:59:55;;;;;;;25.57;10.45;;;;;;;3.21;97.45;98387.78;1780852;78;21020;-78
2022/11/16 06:02:21;;;;;;;18.82;8.93;;;;;;;3.28;97.50;98379.17;1787208;79;21512;-78
2022/11/16 06:04:48;;;;;;;30.75;10.93;;;;;;;3.29;97.43;98369.75;1783039;79;21032;-78
2022/11/16 06:07:15;;;;;;;30.05;12.10;;;;;;;3.31;97.76;98382.15;1781132;79;21131;-78
2022/11/16 06:09:42;;;;;;;34.85;11.60;;;;;;;3.35;97.75;98377.41;1785527;77;21012;-79
2022/11/16 06:12:11;;;;;;;32.05;13.58;;;;;;;3.40;97.84;98374.34;1801005;78;21337;-76
2022/11/16 06:14:38;;;;;;;30.45;12.82;;;;;;;3.46;97.67;98360.60;1789575;78;21011;-77
2022/11/16 06:17:04;;;;;;;23.70;10.20;;;;;;;3.51;97.69;98364.00;1796419;79;20984;-76
2022/11/16 06:19:31;;;;;;;37.05;15.85;;;;;;;3.53;97.62;98364.40;1790587;78;21032;-75
2022/11/16 06:21:58;;;;;;;28.32;12.33;;;;;;;3.57;97.84;98371.66;1794708;78;21020;-77
2022/11/16 06:24:24;;;;;;;28.27;12.25;;;;;;;3.61;97.65;98367.34;1795816;78;21040;-78
2022/11/16 06:26:51;;;;;;;31.95;13.35;;;;;;;3.61;97.43;98364.34;1791609;79;21303;-79
2022/11/16 06:29:18;;;;;;;35.70;16.07;;;;;;;3.63;97.20;98369.03;1803569;78;22079;-78
2022/11/16 06:31:45;;;;;;;32.53;12.80;;;;;;;3.66;97.18;98366.86;1791494;78;20979;-79
2022/11/16 06:34:12;;;;;;;31.80;12.80;;;;;;;3.67;97.12;98357.01;1798759;78;21122;-77
2022/11/16 06:36:38;;;;;;;33.02;14.55;;;;;;;3.67;96.76;98355.28;1823709;78;21128;-79
2022/11/16 06:39:05;;;;;;;28.52;13.28;;;;;;;3.66;97.31;98352.31;1811541;78;21098;-78
2022/11/16 06:41:34;;;;;;;26.75;12.47;;;;;;;3.70;97.56;98351.82;1800710;78;21026;-78
2022/11/16 06:44:00;;;;;;;28.32;11.18;;;;;;;3.70;96.91;98346.27;1811747;77;21506;-79
2022/11/16 06:46:29;;;;;;;36.13;14.80;;;;;;;3.68;96.88;98356.13;1811899;78;21051;-79
2022/11/16 06:48:56;;;;;;;29.92;13.13;;;;;;;3.69;97.20;98354.83;1822545;78;21011;-79
2022/11/16 06:51:23;;;;;;;29.07;13.15;;;;;;;3.66;96.93;98353.59;1819060;78;21047;-78
2022/11/16 06:53:50;;;;;;;25.65;12.43;;;;;;;3.67;97.26;98353.16;1830516;78;20999;-79
2022/11/16 06:56:18;;;;;;;35.92;14.90;;;;;;;3.64;96.68;98349.31;1780305;78;21037;-79
2022/11/16 06:58:46;;;;;;;32.45;14.07;;;;;;;3.61;96.79;98340.36;1811604;78;21503;-78
2022/11/16 07:01:13;;;;;;;28.12;12.65;;;;;;;3.59;96.72;98344.22;1819759;78;21074;-79
2022/11/16 07:03:41;;;;;;;31.30;12.90;;;;;;;3.58;96.89;98342.09;1819567;78;21918;-79
2022/11/16 07:06:13;;;;;;;32.45;12.60;;;;;;;3.60;97.11;98330.48;1831019;78;21137;-79
2022/11/16 07:08:41;;;;;;;40.83;15.88;;;;;;;3.63;97.43;98327.91;1819623;78;21010;-78
2022/11/16 07:11:10;;;;;;;41.98;16.60;;;;;;;3.68;97.77;98331.70;1780396;78;20995;-79
2022/11/16 07:13:38;;;;;;;41.80;17.90;;;;;;;3.74;97.43;98331.64;1812067;77;21280;-79
2022/11/16 07:16:09;;;;;;;38.38;14.50;;;;;;;3.79;97.42;98336.31;1804841;78;21027;-79
2022/11/16 07:18:40;;;;;;;36.35;14.38;;;;;;;3.83;97.57;98334.13;1805069;78;21025;-77
2022/11/16 07:21:11;;;;;;;40.83;14.13;;;;;;;3.84;97.47;98337.55;1816454;78;21086;-77
2022/11/16 07:23:38;;;;;;;37.55;14.38;;;;;;;3.86;97.41;98325.52;1794801;78;21010;-79
2022/11/16 07:26:08;;;;;;;44.88;16.45;;;;;;;3.88;97.63;98324.66;1803631;78;21024;-80
2022/11/16 07:28:36;;;;;;;34.85;14.90;;;;;;;3.91;97.47;98322.48;1792506;78;21015;-78
2022/11/16 07:31:06;;;;;;;37.03;14.30;;;;;;;3.93;97.63;98311.30;1810947;77;21567;-77
2022/11/16 07:33:34;;;;;;;35.38;13.38;;;;;;;4.00;97.65;98318.54;1805792;77;21006;-78
2022/11/16 07:36:18;;;;;;;35.38;14.00;;;;;;;4.05;97.61;98320.61;1799497;78;21035;-78
2022/11/16 07:38:45;;;;;;;36.17;14.45;;;;;;;4.07;97.12;98321.44;1808207;77;21007;-78
2022/11/16 07:41:15;;;;;;;36.80;15.05;;;;;;;4.11;97.19;98320.98;1801791;78;21977;-78
2022/11/16 07:43:44;;;;;;;31.60;15.08;;;;;;;4.14;97.27;98317.94;1794162;78;21911;-79
2022/11/16 07:46:16;;;;;;;35.80;15.18;;;;;;;4.15;97.29;98318.34;1822064;78;20984;-78
2022/11/16 07:48:44;;;;;;;35.88;15.18;;;;;;;4.18;97.17;98323.46;1803298;78;20980;-78
2022/11/16 07:51:15;;;;;;;90.53;41.00;;;;;;;4.19;97.06;98321.29;1800468;78;20985;-79
2022/11/16 07:53:44;;;;;;;56.30;27.13;;;;;;;4.21;97.12;98329.00;1817774;78;21102;-79
2022/11/16 07:56:11;;;;;;;40.95;17.92;;;;;;;4.24;97.14;98325.53;1821928;77;21039;-79
2022/11/16 07:58:39;;;;;;;38.15;15.75;;;;;;;4.25;96.80;98315.67;1810920;77;20987;-78
2022/11/16 08:01:16;;;;;;;38.58;15.78;;;;;;;4.24;96.54;98313.95;1834792;77;21052;-78
2022/11/16 08:03:45;;;;;;;35.50;15.68;;;;;;;4.24;96.44;98315.23;1802267;78;21035;-79
2022/11/16 08:06:22;;;;;;;36.85;14.95;;;;;;;4.23;96.43;98318.70;1820484;78;21621;-79
2022/11/16 08:08:49;;;;;;;34.53;14.55;;;;;;;4.25;96.84;98306.66;1811906;78;20955;-78
2022/11/16 08:11:17;;;;;;;39.08;14.73;;;;;;;4.28;96.92;98302.78;1809530;78;20952;-78
2022/11/16 08:13:44;;;;;;;32.17;13.65;;;;;;;4.31;97.05;98298.42;1807760;78;20964;-79
2022/11/16 08:16:20;;;;;;;34.50;12.28;;;;;;;4.35;97.24;98296.22;1826301;77;20947;-78
2022/11/16 08:18:49;;;;;;;38.05;15.25;;;;;;;4.41;97.50;98289.31;1817062;77;21830;-79
2022/11/16 08:21:17;;;;;;;35.83;14.23;;;;;;;4.51;97.55;98286.58;1829469;78;21030;-78
2022/11/16 08:23:45;;;;;;;29.55;12.80;;;;;;;4.62;97.49;98281.30;1825107;78;21047;-79
2022/11/16 08:26:16;;;;;;;22.60;11.57;;;;;;;4.75;97.39;98267.80;1811104;78;20974;-79
2022/11/16 08:28:47;;;;;;;24.37;12.18;;;;;;;4.88;97.22;98274.47;1823438;77;21349;-79
2022/11/16 08:31:18;;;;;;;26.73;9.88;;;;;;;4.98;96.82;98269.59;1764755;81;20982;-79
2022/11/16 08:33:47;;;;;;;24.20;9.47;;;;;;;5.08;95.87;98277.18;1799050;78;20952;-77
2022/11/16 08:36:17;;;;;;;23.07;10.00;;;;;;;5.18;95.68;98272.28;1815281;78;20959;-79
2022/11/16 08:38:48;;;;;;;23.38;9.78;;;;;;;5.26;96.17;98278.16;1820784;78;20948;-78
2022/11/16 08:41:17;;;;;;;24.23;10.78;;;;;;;5.38;95.97;98276.66;1814946;77;20994;-79
2022/11/16 08:43:46;;;;;;;30.32;11.80;;;;;;;5.51;95.80;98273.44;1800935;78;21613;-77
2022/11/16 08:46:13;;;;;;;24.10;10.93;;;;;;;5.62;94.88;98279.68;1812184;77;20987;-77
2022/11/16 08:48:41;;;;;;;22.77;11.83;;;;;;;5.70;95.16;98280.39;1779450;79;22185;-79
2022/11/16 08:51:13;;;;;;;27.98;12.05;;;;;;;5.78;95.11;98279.80;1805924;78;21034;-77
2022/11/16 08:53:41;;;;;;;25.82;12.10;;;;;;;5.83;94.64;98279.73;1783677;80;20967;-78
2022/11/16 08:56:12;;;;;;;27.35;13.68;;;;;;;5.88;94.91;98279.64;1810552;77;20995;-78
2022/11/16 08:58:45;;;;;;;29.32;13.08;;;;;;;5.87;93.38;98277.50;1803220;78;20959;-80
2022/11/16 09:01:20;;;;;;;31.12;13.22;;;;;;;5.92;93.29;98271.80;1808222;78;21018;-79
2022/11/16 09:03:46;;;;;;;24.98;12.68;;;;;;;5.97;93.33;98265.31;1815335;78;20960;-81
2022/11/16 09:06:14;;;;;;;23.80;12.78;;;;;;;6.04;92.93;98266.87;1817298;78;21547;-78
2022/11/16 09:08:43;;;;;;;26.50;12.93;;;;;;;6.10;92.65;98265.45;1811660;77;21748;-79
2022/11/16 09:11:15;;;;;;;25.17;12.95;;;;;;;6.15;93.02;98261.51;1820944;77;21127;-77
2022/11/16 09:13:43;;;;;;;27.00;13.50;;;;;;;6.22;92.69;98260.93;1798281;78;21470;-79
2022/11/16 09:16:10;;;;;;;31.35;13.45;;;;;;;6.25;91.62;98264.75;1799169;78;20996;-78
2022/11/16 09:18:37;;;;;;;29.65;14.75;;;;;;;6.29;92.17;98254.31;1805022;77;21042;-79
2022/11/16 09:21:04;;;;;;;29.77;13.70;;;;;;;6.28;91.48;98256.48;1788112;79;21047;-79
2022/11/16 09:23:31;;;;;;;29.95;17.30;;;;;;;6.31;91.67;98255.58;1814125;77;20995;-80
2022/11/16 09:26:03;;;;;;;28.80;13.62;;;;;;;6.39;91.76;98253.69;1790212;78;21114;-79
2022/11/16 09:28:30;;;;;;;31.57;14.28;;;;;;;6.33;91.51;98244.34;1802566;78;20956;-78
2022/11/16 09:31:04;;;;;;;25.90;13.28;;;;;;;6.33;91.70;98243.05;1806325;78;20931;-77
2022/11/16 09:33:32;;;;;;;25.77;13.85;;;;;;;6.32;91.62;98241.78;1793896;78;21027;-78
2022/11/16 09:36:06;;;;;;;31.30;14.35;;;;;;;6.45;92.83;98240.64;1788669;79;21023;-78
2022/11/16 09:38:43;;;;;;;33.92;14.25;;;;;;;6.50;92.66;98227.16;1811834;77;21058;-78
2022/11/16 09:41:24;;;;;;;28.45;14.03;;;;;;;6.61;92.97;98224.36;1798141;78;21071;-79
2022/11/16 09:44:08;;;;;;;28.62;13.03;;;;;;;6.59;92.38;98219.67;1795847;79;21152;-79
2022/11/16 09:46:40;;;;;;;67.97;25.90;;;;;;;6.64;91.89;98220.84;1743957;80;21058;-80
2022/11/16 09:49:20;;;;;;;30.97;15.53;;;;;;;6.66;90.95;98214.75;1776367;79;21011;-79
2022/11/16 09:51:54;;;;;;;28.67;14.13;;;;;;;6.70;92.00;98218.11;1831455;78;21110;-79
2022/11/16 09:54:25;;;;;;;30.97;13.75;;;;;;;6.66;92.12;98218.63;1804277;78;21003;-79
2022/11/16 09:56:58;;;;;;;26.37;14.33;;;;;;;6.61;90.86;98210.60;1814795;78;21024;-78
2022/11/16 09:59:39;;;;;;;50.45;19.80;;;;;;;6.68;91.79;98206.97;1822280;78;21030;-79
2022/11/16 10:02:29;;;;;;;33.25;16.48;;;;;;;6.65;90.18;98205.77;1799682;78;21011;-79
2022/11/16 10:05:36;;;;;;;32.70;14.13;;;;;;;6.69;90.89;98195.77;1813804;78;21380;-79
2022/11/16 10:08:30;;;;;;;29.02;14.38;;;;;;;6.75;90.89;98195.63;1852216;76;21022;-80
2022/11/16 10:11:11;;;;;;;30.32;14.50;;;;;;;6.78;90.33;98185.20;1806853;78;21015;-78
2022/11/16 10:13:46;;;;;;;30.68;16.05;;;;;;;6.81;90.21;98186.87;1828032;78;21363;-79
2022/11/16 10:16:47;;;;;;;38.15;18.30;;;;;;;6.82;90.27;98183.39;1825009;77;21059;-78
2022/11/16 10:19:35;;;;;;;39.65;17.37;;;;;;;6.76;89.15;98181.38;1815414;76;21311;-80
2022/11/16 10:22:22;;;;;;;33.00;15.05;;;;;;;6.75;89.76;98168.50;1810340;78;21077;-79
2022/11/16 10:24:58;;;;;;;40.58;16.82;;;;;;;6.72;89.79;98164.69;1812838;77;21551;-79
2022/11/16 10:28:08;;;;;;;38.23;15.70;;;;;;;6.73;89.85;98162.52;1823565;78;21102;-80
2022/11/16 10:30:40;;;;;;;36.38;15.58;;;;;;;6.73;90.37;98163.36;1788727;78;21538;-79
2022/11/16 10:33:12;;;;;;;41.65;17.02;;;;;;;6.77;90.34;98169.30;1788613;78;21566;-79
2022/11/16 10:35:52;;;;;;;26.37;12.25;;;;;;;6.83;90.38;98158.81;1809098;78;20979;-79
2022/11/16 10:38:24;;;;;;;27.15;13.28;;;;;;;6.90;91.08;98150.45;1820123;76;21031;-79
2022/11/16 10:40:55;;;;;;;38.28;15.13;;;;;;;6.95;90.92;98147.33;1804317;77;21054;-79
2022/11/16 10:43:28;;;;;;;31.42;14.70;;;;;;;7.04;90.80;98146.23;1824825;78;21003;-80
2022/11/16 10:46:12;;;;;;;30.85;15.55;;;;;;;7.14;91.33;98145.09;1810859;78;21067;-81
2022/11/16 10:48:50;;;;;;;35.90;15.28;;;;;;;7.22;91.10;98138.44;1835483;76;20983;-80
2022/11/16 10:51:17;;;;;;;30.90;14.40;;;;;;;7.33;91.25;98139.84;1791961;78;21024;-79
2022/11/16 10:53:44;;;;;;;30.50;15.58;;;;;;;7.38;89.97;98139.70;1818840;78;20995;-78
2022/11/16 10:56:39;;;;;;;42.35;17.77;;;;;;;7.45;90.35;98134.78;1830248;78;21010;-79
2022/11/16 10:59:08;;;;;;;43.92;16.85;;;;;;;7.52;90.34;98141.91;1839719;76;20994;-79
2022/11/16 11:01:42;;;;;;;47.05;18.45;;;;;;;7.48;88.88;98139.01;1803603;78;22186;-81
2022/11/16 11:04:14;;;;;;;;;;;;;;;7.48;89.56;98128.66;1813710;78;21078;-80
2022/11/16 11:06:42;;;;;;;33.05;16.07;;;;;;;7.42;88.38;98134.01;1808075;78;20877;-78
2022/11/16 11:09:26;;;;;;;40.20;16.45;;;;;;;7.38;89.23;98130.66;1833034;76;21042;-80
2022/11/16 11:12:37;;;;;;;38.28;16.40;;;;;;;7.42;89.78;98132.72;1804544;76;21614;-79
2022/11/16 11:15:25;;;;;;;31.68;16.45;;;;;;;7.41;89.59;98118.11;1817607;76;21026;-79
2022/11/16 11:18:20;;;;;;;36.58;15.85;;;;;;;7.45;89.33;98121.01;1816190;78;21518;-79
2022/11/16 11:21:07;;;;;;;47.45;22.00;;;;;;;7.43;89.21;98124.08;1827274;77;21015;-78
2022/11/16 11:23:51;;;;;;;53.73;22.02;;;;;;;7.43;89.44;98115.03;1807628;79;21025;-79
2022/11/16 11:26:36;;;;;;;38.65;18.40;;;;;;;7.45;89.80;98115.84;1804948;78;20940;-80
2022/11/16 11:29:17;;;;;;;35.45;16.75;;;;;;;7.41;89.53;98110.34;1806878;77;21491;-79
2022/11/16 11:31:54;;;;;;;42.20;17.50;;;;;;;7.43;90.08;98102.94;1812585;78;21039;-79
2022/11/16 11:34:27;;;;;;;32.65;14.93;;;;;;;7.50;90.37;98107.48;1784159;80;21078;-80
2022/11/16 11:37:02;;;;;;;36.73;16.87;;;;;;;7.57;90.33;98098.22;1784845;78;21016;-79
2022/11/16 11:39:35;;;;;;;33.50;15.40;;;;;;;7.61;90.28;98087.34;1781506;78;21066;-80
2022/11/16 11:42:16;;;;;;;32.90;15.43;;;;;;;7.73;90.57;98090.86;1790015;78;20983;-79
2022/11/16 11:44:59;;;;;;;32.70;16.00;;;;;;;7.86;90.85;98089.19;1797021;79;21023;-79
2022/11/16 11:47:40;;;;;;;30.32;15.05;;;;;;;7.97;90.44;98097.48;1824792;78;21019;-78
2022/11/16 11:50:19;;;;;;;30.60;15.18;;;;;;;8.05;90.91;98083.86;1795566;77;21534;-80
2022/11/16 11:53:03;;;;;;;31.62;14.10;;;;;;;8.08;90.15;98089.41;1799630;77;21022;-80
2022/11/16 11:55:30;;;;;;;34.35;17.12;;;;;;;8.18;90.05;98080.45;1806360;78;21039;-79
2022/11/16 11:58:00;;;;;;;39.75;17.70;;;;;;;8.29;89.90;98076.21;1819678;78;20998;-80
2022/11/16 12:00:35;;;;;;;34.63;17.57;;;;;;;8.33;89.49;98075.22;1812384;76;20992;-80
2022/11/16 12:03:30;;;;;;;36.08;18.02;;;;;;;8.35;88.95;98077.31;1805106;77;20984;-79
2022/11/16 12:06:17;;;;;;;33.05;17.42;;;;;;;8.39;88.85;98078.91;1806955;78;21023;-80
2022/11/16 12:08:58;;;;;;;38.98;17.57;;;;;;;8.44;88.74;98080.94;1842655;76;21089;-79
2022/11/16 12:11:39;;;;;;;35.80;16.95;;;;;;;8.40;89.02;98068.95;1804429;78;21028;-79
2022/11/16 12:14:23;;;;;;;35.35;17.32;;;;;;;8.35;88.70;98071.67;1817316;78;21059;-80
2022/11/16 12:17:15;;;;;;;29.45;15.63;;;;;;;8.34;88.30;98066.56;1814969;78;21086;-80
2022/11/16 12:20:10;;;;;;;30.92;16.55;;;;;;;8.27;88.21;98061.17;1823248;77;21026;-78
2022/11/16 12:22:58;;;;;;;32.85;16.48;;;;;;;8.25;87.89;98061.22;1809121;78;21554;-79
2022/11/16 12:25:36;;;;;;;35.50;17.67;;;;;;;8.22;88.61;98060.04;1804321;78;21099;-78
2022/11/16 12:28:20;;;;;;;38.00;18.52;;;;;;;8.20;88.85;98054.48;1806902;77;21047;-79
2022/11/16 12:31:11;;;;;;;;;;;;;;;8.18;89.16;98048.09;1810064;76;21038;-79
2022/11/16 12:34:12;;;;;;;35.78;17.48;;;;;;;8.17;89.45;98043.34;1815621;78;20187;-80